sensor_id;sensor_type;location;lat;lon;timestamp;pressure;altitude;pressure_sealevel;temperature;humidity
6090;BME280;3073;42.660;23.316;2023-02-19T00:00:10;94805.97;;;7.51;96.24
6090;BME280;3073;42.660;23.316;2023-02-19T00:02:40;94806.72;;;7.34;96.99
6090;BME280;3073;42.660;23.316;2023-02-19T00:05:07;94808.06;;;7.36;97.27
6090;BME280;3073;42.660;23.316;2023-02-19T00:07:33;94802.00;;;7.37;98.54
6090;BME280;3073;42.660;23.316;2023-02-19T00:10:02;94802.34;;;7.41;97.74
6090;BME280;3073;42.660;23.316;2023-02-19T00:12:29;94800.94;;;7.45;97.64
6090;BME280;3073;42.660;23.316;2023-02-19T00:14:56;94794.22;;;7.07;100.00
6090;BME280;3073;42.660;23.316;2023-02-19T00:17:24;94795.09;;;7.19;100.00
6090;BME280;3073;42.660;23.316;2023-02-19T00:19:51;94807.84;;;7.13;100.00
6090;BME280;3073;42.660;23.316;2023-02-19T00:22:17;94791.34;;;6.97;100.00
6090;BME280;3073;42.660;23.316;2023-02-19T00:24:44;94804.00;;;6.72;100.00
6090;BME280;3073;42.660;23.316;2023-02-19T00:27:12;94789.78;;;6.71;100.00
6090;BME280;3073;42.660;23.316;2023-02-19T00:29:39;94790.81;;;6.57;100.00
6090;BME280;3073;42.660;23.316;2023-02-19T00:32:06;94785.91;;;6.69;100.00
6090;BME280;3073;42.660;23.316;2023-02-19T00:34:33;94777.28;;;6.77;100.00
6090;BME280;3073;42.660;23.316;2023-02-19T00:37:08;94764.50;;;6.90;100.00
6090;BME280;3073;42.660;23.316;2023-02-19T00:39:39;94780.09;;;6.93;100.00
6090;BME280;3073;42.660;23.316;2023-02-19T00:42:06;94779.69;;;6.96;100.00
6090;BME280;3073;42.660;23.316;2023-02-19T00:44:34;94771.28;;;6.96;100.00
6090;BME280;3073;42.660;23.316;2023-02-19T00:47:01;94785.66;;;6.77;100.00
6090;BME280;3073;42.660;23.316;2023-02-19T00:49:28;94769.16;;;6.61;100.00
6090;BME280;3073;42.660;23.316;2023-02-19T00:51:56;94759.16;;;5.84;100.00
6090;BME280;3073;42.660;23.316;2023-02-19T00:54:23;94759.81;;;5.66;100.00
6090;BME280;3073;42.660;23.316;2023-02-19T00:56:50;94759.38;;;5.83;100.00
6090;BME280;3073;42.660;23.316;2023-02-19T00:59:17;94762.63;;;6.09;100.00
6090;BME280;3073;42.660;23.316;2023-02-19T01:01:45;94759.81;;;6.24;100.00
6090;BME280;3073;42.660;23.316;2023-02-19T01:04:14;94752.16;;;6.37;100.00
6090;BME280;3073;42.660;23.316;2023-02-19T01:06:41;94748.59;;;6.45;100.00
6090;BME280;3073;42.660;23.316;2023-02-19T01:09:08;94751.47;;;6.55;100.00
6090;BME280;3073;42.660;23.316;2023-02-19T01:11:49;94746.28;;;6.43;100.00
6090;BME280;3073;42.660;23.316;2023-02-19T01:14:17;94752.00;;;6.63;100.00
6090;BME280;3073;42.660;23.316;2023-02-19T01:16:43;94750.19;;;6.70;100.00
6090;BME280;3073;42.660;23.316;2023-02-19T01:19:12;94726.81;;;6.68;100.00
6090;BME280;3073;42.660;23.316;2023-02-19T01:21:39;94736.84;;;6.82;100.00
6090;BME280;3073;42.660;23.316;2023-02-19T01:24:06;94760.97;;;6.91;100.00
6090;BME280;3073;42.660;23.316;2023-02-19T01:26:33;94745.25;;;6.82;100.00
6090;BME280;3073;42.660;23.316;2023-02-19T01:29:00;94754.03;;;6.80;100.00
6090;BME280;3073;42.660;23.316;2023-02-19T01:31:28;94766.13;;;6.78;100.00
6090;BME280;3073;42.660;23.316;2023-02-19T01:33:57;94778.56;;;6.86;100.00
6090;BME280;3073;42.660;23.316;2023-02-19T01:36:31;94760.25;;;6.84;100.00
6090;BME280;3073;42.660;23.316;2023-02-19T01:39:06;94779.53;;;6.60;100.00
6090;BME280;3073;42.660;23.316;2023-02-19T01:41:35;94784.16;;;6.69;100.00
6090;BME280;3073;42.660;23.316;2023-02-19T01:44:05;94787.91;;;6.60;100.00
6090;BME280;3073;42.660;23.316;2023-02-19T01:46:33;94790.50;;;6.47;100.00
6090;BME280;3073;42.660;23.316;2023-02-19T01:49:04;94801.41;;;6.48;100.00
6090;BME280;3073;42.660;23.316;2023-02-19T01:51:36;94810.56;;;6.49;100.00
6090;BME280;3073;42.660;23.316;2023-02-19T01:54:06;94816.03;;;6.52;100.00
6090;BME280;3073;42.660;23.316;2023-02-19T01:56:36;94805.09;;;6.52;100.00
6090;BME280;3073;42.660;23.316;2023-02-19T01:59:05;94794.59;;;6.48;100.00
6090;BME280;3073;42.660;23.316;2023-02-19T02:01:33;94804.91;;;6.53;100.00
6090;BME280;3073;42.660;23.316;2023-02-19T02:04:00;94801.72;;;6.64;100.00
6090;BME280;3073;42.660;23.316;2023-02-19T02:06:29;94790.63;;;6.59;100.00
6090;BME280;3073;42.660;23.316;2023-02-19T02:08:58;94787.25;;;6.71;100.00
6090;BME280;3073;42.660;23.316;2023-02-19T02:11:47;94775.25;;;6.54;100.00
6090;BME280;3073;42.660;23.316;2023-02-19T02:14:14;94789.28;;;6.56;100.00
6090;BME280;3073;42.660;23.316;2023-02-19T02:16:48;94794.38;;;6.56;100.00
6090;BME280;3073;42.660;23.316;2023-02-19T02:19:51;94785.75;;;6.57;100.00
6090;BME280;3073;42.660;23.316;2023-02-19T02:22:25;94799.50;;;6.43;100.00
6090;BME280;3073;42.660;23.316;2023-02-19T02:25:25;94787.66;;;6.31;100.00
6090;BME280;3073;42.660;23.316;2023-02-19T02:28:00;94793.75;;;6.23;100.00
6090;BME280;3073;42.660;23.316;2023-02-19T02:30:38;94796.84;;;6.25;100.00
6090;BME280;3073;42.660;23.316;2023-02-19T02:33:22;94795.63;;;6.34;100.00
6090;BME280;3073;42.660;23.316;2023-02-19T02:35:54;94794.84;;;6.40;100.00
6090;BME280;3073;42.660;23.316;2023-02-19T02:38:24;94803.81;;;6.36;100.00
6090;BME280;3073;42.660;23.316;2023-02-19T02:40:53;94803.41;;;6.39;100.00
6090;BME280;3073;42.660;23.316;2023-02-19T02:43:22;94802.59;;;6.45;100.00
6090;BME280;3073;42.660;23.316;2023-02-19T02:45:50;94805.31;;;6.50;100.00
6090;BME280;3073;42.660;23.316;2023-02-19T02:48:27;94805.66;;;6.60;100.00
6090;BME280;3073;42.660;23.316;2023-02-19T02:50:59;94800.59;;;6.54;100.00
6090;BME280;3073;42.660;23.316;2023-02-19T02:53:34;94801.34;;;6.61;100.00
6090;BME280;3073;42.660;23.316;2023-02-19T02:56:21;94790.59;;;6.28;100.00
6090;BME280;3073;42.660;23.316;2023-02-19T02:58:51;94792.91;;;6.36;100.00
6090;BME280;3073;42.660;23.316;2023-02-19T03:01:22;94807.25;;;6.04;100.00
6090;BME280;3073;42.660;23.316;2023-02-19T03:04:11;94798.47;;;6.13;100.00
6090;BME280;3073;42.660;23.316;2023-02-19T03:06:41;94792.63;;;6.12;100.00
6090;BME280;3073;42.660;23.316;2023-02-19T03:09:16;94794.94;;;6.14;100.00
6090;BME280;3073;42.660;23.316;2023-02-19T03:11:48;94805.84;;;6.14;100.00
6090;BME280;3073;42.660;23.316;2023-02-19T03:14:37;94807.06;;;6.05;100.00
6090;BME280;3073;42.660;23.316;2023-02-19T03:17:28;94800.00;;;6.14;100.00
6090;BME280;3073;42.660;23.316;2023-02-19T03:20:16;94808.28;;;5.90;100.00
6090;BME280;3073;42.660;23.316;2023-02-19T03:22:47;94811.72;;;6.08;100.00
6090;BME280;3073;42.660;23.316;2023-02-19T03:25:18;94815.97;;;6.14;100.00
6090;BME280;3073;42.660;23.316;2023-02-19T03:28:06;94830.00;;;6.10;100.00
6090;BME280;3073;42.660;23.316;2023-02-19T03:30:39;94837.25;;;6.13;100.00
6090;BME280;3073;42.660;23.316;2023-02-19T03:33:10;94835.13;;;5.97;100.00
6090;BME280;3073;42.660;23.316;2023-02-19T03:35:41;94834.72;;;6.07;100.00
6090;BME280;3073;42.660;23.316;2023-02-19T03:38:12;94840.53;;;6.07;100.00
6090;BME280;3073;42.660;23.316;2023-02-19T03:40:47;94848.00;;;5.76;100.00
6090;BME280;3073;42.660;23.316;2023-02-19T03:43:20;94847.59;;;5.99;100.00
6090;BME280;3073;42.660;23.316;2023-02-19T03:45:58;94847.41;;;6.00;100.00
6090;BME280;3073;42.660;23.316;2023-02-19T03:48:33;94846.78;;;6.05;100.00
6090;BME280;3073;42.660;23.316;2023-02-19T03:51:13;94846.81;;;5.92;100.00
6090;BME280;3073;42.660;23.316;2023-02-19T03:53:51;94837.88;;;5.83;100.00
6090;BME280;3073;42.660;23.316;2023-02-19T03:56:24;94849.56;;;5.57;100.00
6090;BME280;3073;42.660;23.316;2023-02-19T03:58:57;94839.25;;;5.65;100.00
6090;BME280;3073;42.660;23.316;2023-02-19T04:01:28;94853.44;;;5.80;100.00
6090;BME280;3073;42.660;23.316;2023-02-19T04:04:02;94861.44;;;5.83;100.00
6090;BME280;3073;42.660;23.316;2023-02-19T04:06:33;94859.09;;;5.82;100.00
6090;BME280;3073;42.660;23.316;2023-02-19T04:09:07;94865.72;;;5.76;100.00
6090;BME280;3073;42.660;23.316;2023-02-19T04:11:35;94865.31;;;5.79;100.00
6090;BME280;3073;42.660;23.316;2023-02-19T04:14:06;94862.81;;;5.86;100.00
6090;BME280;3073;42.660;23.316;2023-02-19T04:16:37;94864.38;;;5.93;100.00
6090;BME280;3073;42.660;23.316;2023-02-19T04:19:11;94859.09;;;5.95;100.00
6090;BME280;3073;42.660;23.316;2023-02-19T04:21:40;94875.06;;;6.02;100.00
6090;BME280;3073;42.660;23.316;2023-02-19T04:24:11;94872.13;;;5.85;100.00
6090;BME280;3073;42.660;23.316;2023-02-19T04:26:40;94873.09;;;5.97;100.00
6090;BME280;3073;42.660;23.316;2023-02-19T04:29:08;94876.41;;;6.04;100.00
6090;BME280;3073;42.660;23.316;2023-02-19T04:31:35;94871.34;;;6.04;100.00
6090;BME280;3073;42.660;23.316;2023-02-19T04:34:03;94870.19;;;6.07;100.00
6090;BME280;3073;42.660;23.316;2023-02-19T04:36:32;94873.28;;;6.09;100.00
6090;BME280;3073;42.660;23.316;2023-02-19T04:39:00;94882.25;;;6.05;100.00
6090;BME280;3073;42.660;23.316;2023-02-19T04:41:27;94875.25;;;6.07;100.00
6090;BME280;3073;42.660;23.316;2023-02-19T04:43:54;94877.19;;;5.98;100.00
6090;BME280;3073;42.660;23.316;2023-02-19T04:46:21;94879.16;;;6.03;100.00
6090;BME280;3073;42.660;23.316;2023-02-19T04:48:48;94874.25;;;6.08;100.00
6090;BME280;3073;42.660;23.316;2023-02-19T04:51:16;94882.06;;;6.13;100.00
6090;BME280;3073;42.660;23.316;2023-02-19T04:53:44;94878.31;;;6.22;100.00
6090;BME280;3073;42.660;23.316;2023-02-19T04:56:13;94883.78;;;6.19;100.00
6090;BME280;3073;42.660;23.316;2023-02-19T04:58:42;94880.69;;;6.17;100.00
6090;BME280;3073;42.660;23.316;2023-02-19T05:01:12;94886.91;;;6.08;100.00
6090;BME280;3073;42.660;23.316;2023-02-19T05:03:39;94885.16;;;6.08;100.00
6090;BME280;3073;42.660;23.316;2023-02-19T05:06:09;94886.56;;;5.91;100.00
6090;BME280;3073;42.660;23.316;2023-02-19T05:08:36;94881.69;;;5.96;100.00
6090;BME280;3073;42.660;23.316;2023-02-19T05:11:06;94887.72;;;5.69;100.00
6090;BME280;3073;42.660;23.316;2023-02-19T05:13:35;94883.44;;;5.76;100.00
6090;BME280;3073;42.660;23.316;2023-02-19T05:16:04;94893.97;;;5.73;100.00
6090;BME280;3073;42.660;23.316;2023-02-19T05:18:32;94890.03;;;5.77;100.00
6090;BME280;3073;42.660;23.316;2023-02-19T05:21:00;94888.91;;;5.60;100.00
6090;BME280;3073;42.660;23.316;2023-02-19T05:23:27;94893.56;;;5.50;100.00
6090;BME280;3073;42.660;23.316;2023-02-19T05:25:54;94894.94;;;5.59;100.00
6090;BME280;3073;42.660;23.316;2023-02-19T05:28:23;94892.41;;;5.65;100.00
6090;BME280;3073;42.660;23.316;2023-02-19T05:30:54;94891.44;;;5.60;100.00
6090;BME280;3073;42.660;23.316;2023-02-19T05:33:23;94890.44;;;5.67;100.00
6090;BME280;3073;42.660;23.316;2023-02-19T05:35:52;94904.09;;;5.66;100.00
6090;BME280;3073;42.660;23.316;2023-02-19T05:38:20;94895.50;;;5.67;100.00
6090;BME280;3073;42.660;23.316;2023-02-19T05:40:53;94903.47;;;5.84;100.00
6090;BME280;3073;42.660;23.316;2023-02-19T05:43:20;94909.72;;;5.95;100.00
6090;BME280;3073;42.660;23.316;2023-02-19T05:45:48;94903.09;;;6.07;100.00
6090;BME280;3073;42.660;23.316;2023-02-19T05:48:17;94899.41;;;6.09;100.00
6090;BME280;3073;42.660;23.316;2023-02-19T05:50:44;94907.72;;;6.30;100.00
6090;BME280;3073;42.660;23.316;2023-02-19T05:53:14;94905.16;;;6.43;100.00
6090;BME280;3073;42.660;23.316;2023-02-19T05:55:41;94907.44;;;6.51;100.00
6090;BME280;3073;42.660;23.316;2023-02-19T05:58:08;94910.34;;;6.61;100.00
6090;BME280;3073;42.660;23.316;2023-02-19T06:00:35;94916.50;;;6.78;100.00
6090;BME280;3073;42.660;23.316;2023-02-19T06:03:04;94930.88;;;6.91;100.00
6090;BME280;3073;42.660;23.316;2023-02-19T06:05:30;94929.03;;;7.11;100.00
6090;BME280;3073;42.660;23.316;2023-02-19T06:07:57;94930.19;;;7.15;100.00
6090;BME280;3073;42.660;23.316;2023-02-19T06:10:24;94941.59;;;7.37;100.00
6090;BME280;3073;42.660;23.316;2023-02-19T06:12:53;94936.22;;;8.01;100.00
6090;BME280;3073;42.660;23.316;2023-02-19T06:15:23;94947.41;;;8.43;96.17
6090;BME280;3073;42.660;23.316;2023-02-19T06:17:50;94945.47;;;8.75;92.68
6090;BME280;3073;42.660;23.316;2023-02-19T06:20:19;94951.97;;;8.89;90.10
6090;BME280;3073;42.660;23.316;2023-02-19T06:22:49;94949.03;;;9.22;88.38
6090;BME280;3073;42.660;23.316;2023-02-19T06:25:16;94954.09;;;9.52;85.84
6090;BME280;3073;42.660;23.316;2023-02-19T06:27:43;94948.50;;;9.84;83.25
6090;BME280;3073;42.660;23.316;2023-02-19T06:30:11;94940.53;;;10.04;81.15
6090;BME280;3073;42.660;23.316;2023-02-19T06:32:38;94953.88;;;10.41;79.62
6090;BME280;3073;42.660;23.316;2023-02-19T06:35:05;94940.25;;;10.47;77.63
6090;BME280;3073;42.660;23.316;2023-02-19T06:37:33;94955.28;;;10.72;76.12
6090;BME280;3073;42.660;23.316;2023-02-19T06:40:00;94948.47;;;11.01;73.91
6090;BME280;3073;42.660;23.316;2023-02-19T06:42:30;94946.19;;;11.16;71.88
6090;BME280;3073;42.660;23.316;2023-02-19T06:44:57;94942.75;;;11.38;71.07
6090;BME280;3073;42.660;23.316;2023-02-19T06:47:24;94942.88;;;11.60;69.02
6090;BME280;3073;42.660;23.316;2023-02-19T06:49:51;94944.69;;;11.76;67.71
6090;BME280;3073;42.660;23.316;2023-02-19T06:52:17;94946.84;;;12.01;66.90
6090;BME280;3073;42.660;23.316;2023-02-19T06:54:45;94945.50;;;12.32;64.97
6090;BME280;3073;42.660;23.316;2023-02-19T06:57:13;94947.69;;;12.40;64.37
6090;BME280;3073;42.660;23.316;2023-02-19T06:59:39;94953.97;;;12.71;63.03
6090;BME280;3073;42.660;23.316;2023-02-19T07:02:08;94956.63;;;13.03;61.59
6090;BME280;3073;42.660;23.316;2023-02-19T07:04:36;94961.06;;;13.29;60.33
6090;BME280;3073;42.660;23.316;2023-02-19T07:07:02;94964.19;;;13.09;60.30
6090;BME280;3073;42.660;23.316;2023-02-19T07:09:30;94955.34;;;13.75;58.18
6090;BME280;3073;42.660;23.316;2023-02-19T07:11:59;94956.88;;;13.76;57.94
6090;BME280;3073;42.660;23.316;2023-02-19T07:14:26;94957.81;;;13.65;57.69
6090;BME280;3073;42.660;23.316;2023-02-19T07:16:54;94955.63;;;13.79;57.09
6090;BME280;3073;42.660;23.316;2023-02-19T07:19:20;94961.22;;;14.08;55.78
6090;BME280;3073;42.660;23.316;2023-02-19T07:21:47;94952.28;;;14.10;55.37
6090;BME280;3073;42.660;23.316;2023-02-19T07:24:14;94956.41;;;15.00;53.64
6090;BME280;3073;42.660;23.316;2023-02-19T07:26:41;94941.84;;;15.31;53.71
6090;BME280;3073;42.660;23.316;2023-02-19T07:29:10;94943.09;;;15.28;54.09
6090;BME280;3073;42.660;23.316;2023-02-19T07:31:37;94938.75;;;15.34;55.46
6090;BME280;3073;42.660;23.316;2023-02-19T07:34:03;94940.88;;;15.62;51.44
6090;BME280;3073;42.660;23.316;2023-02-19T07:36:31;94941.91;;;15.81;50.86
6090;BME280;3073;42.660;23.316;2023-02-19T07:38:58;94939.84;;;16.19;50.66
6090;BME280;3073;42.660;23.316;2023-02-19T07:41:26;94933.53;;;16.90;48.46
6090;BME280;3073;42.660;23.316;2023-02-19T07:43:53;94933.66;;;16.40;48.97
6090;BME280;3073;42.660;23.316;2023-02-19T07:46:22;94931.13;;;16.10;50.92
6090;BME280;3073;42.660;23.316;2023-02-19T07:48:49;94937.22;;;16.64;51.20
6090;BME280;3073;42.660;23.316;2023-02-19T07:51:18;94930.41;;;17.42;50.86
6090;BME280;3073;42.660;23.316;2023-02-19T07:53:45;94925.31;;;17.76;48.31
6090;BME280;3073;42.660;23.316;2023-02-19T07:56:12;94916.84;;;17.27;48.13
6090;BME280;3073;42.660;23.316;2023-02-19T07:58:39;94919.63;;;18.08;46.19
6090;BME280;3073;42.660;23.316;2023-02-19T08:01:08;94923.53;;;18.06;45.30
6090;BME280;3073;42.660;23.316;2023-02-19T08:03:38;94924.19;;;18.74;45.81
6090;BME280;3073;42.660;23.316;2023-02-19T08:06:04;94931.31;;;18.29;44.82
6090;BME280;3073;42.660;23.316;2023-02-19T08:08:31;94913.53;;;18.28;46.29
6090;BME280;3073;42.660;23.316;2023-02-19T08:10:59;94922.06;;;18.99;44.22
6090;BME280;3073;42.660;23.316;2023-02-19T08:13:44;94919.44;;;18.81;46.01
6090;BME280;3073;42.660;23.316;2023-02-19T08:16:14;94914.91;;;18.91;44.21
6090;BME280;3073;42.660;23.316;2023-02-19T08:18:43;94918.41;;;19.43;45.04
6090;BME280;3073;42.660;23.316;2023-02-19T08:21:11;94925.25;;;19.71;43.33
6090;BME280;3073;42.660;23.316;2023-02-19T08:23:38;94923.09;;;19.92;41.68
6090;BME280;3073;42.660;23.316;2023-02-19T08:26:05;94921.81;;;20.08;42.20
6090;BME280;3073;42.660;23.316;2023-02-19T08:28:34;94926.28;;;20.21;42.83
6090;BME280;3073;42.660;23.316;2023-02-19T08:31:03;94927.56;;;19.73;41.77
6090;BME280;3073;42.660;23.316;2023-02-19T08:33:30;94912.47;;;19.61;42.59
6090;BME280;3073;42.660;23.316;2023-02-19T08:36:02;94924.50;;;18.91;43.32
6090;BME280;3073;42.660;23.316;2023-02-19T08:38:30;94920.25;;;18.76;43.28
6090;BME280;3073;42.660;23.316;2023-02-19T08:40:59;94913.63;;;18.41;44.74
6090;BME280;3073;42.660;23.316;2023-02-19T08:43:26;94920.06;;;18.44;43.09
6090;BME280;3073;42.660;23.316;2023-02-19T08:45:52;94908.75;;;18.40;44.46
6090;BME280;3073;42.660;23.316;2023-02-19T08:48:20;94907.09;;;18.96;44.16
6090;BME280;3073;42.660;23.316;2023-02-19T08:50:53;94915.97;;;18.14;44.08
6090;BME280;3073;42.660;23.316;2023-02-19T08:53:21;94908.13;;;18.77;43.46
6090;BME280;3073;42.660;23.316;2023-02-19T08:55:48;94905.88;;;19.31;42.41
6090;BME280;3073;42.660;23.316;2023-02-19T08:58:15;94902.25;;;18.71;42.44
6090;BME280;3073;42.660;23.316;2023-02-19T09:00:42;94894.88;;;18.60;43.33
6090;BME280;3073;42.660;23.316;2023-02-19T09:03:09;94894.75;;;18.17;44.15
6090;BME280;3073;42.660;23.316;2023-02-19T09:05:36;94887.59;;;17.41;46.02
6090;BME280;3073;42.660;23.316;2023-02-19T09:08:03;94888.69;;;16.81;46.43
6090;BME280;3073;42.660;23.316;2023-02-19T09:10:32;94880.69;;;17.32;46.35
6090;BME280;3073;42.660;23.316;2023-02-19T09:13:00;94883.13;;;16.59;47.38
6090;BME280;3073;42.660;23.316;2023-02-19T09:15:27;94881.78;;;16.77;47.85
6090;BME280;3073;42.660;23.316;2023-02-19T09:17:55;94871.22;;;18.19;45.95
6090;BME280;3073;42.660;23.316;2023-02-19T09:20:21;94861.84;;;18.04;44.71
6090;BME280;3073;42.660;23.316;2023-02-19T09:22:48;94864.13;;;17.43;45.98
6090;BME280;3073;42.660;23.316;2023-02-19T09:25:16;94867.78;;;17.37;46.24
6090;BME280;3073;42.660;23.316;2023-02-19T09:27:44;94870.53;;;18.13;44.76
6090;BME280;3073;42.660;23.316;2023-02-19T09:30:11;94869.69;;;17.55;45.88
6090;BME280;3073;42.660;23.316;2023-02-19T09:32:38;94865.66;;;18.59;44.19
6090;BME280;3073;42.660;23.316;2023-02-19T09:35:06;94870.47;;;19.27;42.52
6090;BME280;3073;42.660;23.316;2023-02-19T09:37:37;94857.97;;;18.01;45.20
6090;BME280;3073;42.660;23.316;2023-02-19T09:40:04;94850.81;;;17.93;45.01
6090;BME280;3073;42.660;23.316;2023-02-19T09:42:31;94872.28;;;18.89;43.30
6090;BME280;3073;42.660;23.316;2023-02-19T09:45:00;94863.41;;;19.32;42.45
6090;BME280;3073;42.660;23.316;2023-02-19T09:47:28;94860.50;;;18.59;43.04
6090;BME280;3073;42.660;23.316;2023-02-19T09:49:58;94856.88;;;19.35;42.11
6090;BME280;3073;42.660;23.316;2023-02-19T09:52:30;94855.03;;;20.19;40.96
6090;BME280;3073;42.660;23.316;2023-02-19T09:55:01;94853.13;;;20.24;40.31
6090;BME280;3073;42.660;23.316;2023-02-19T09:57:31;94850.66;;;20.60;39.95
6090;BME280;3073;42.660;23.316;2023-02-19T10:00:05;94833.16;;;20.11;39.96
6090;BME280;3073;42.660;23.316;2023-02-19T10:02:33;94824.34;;;21.02;39.48
6090;BME280;3073;42.660;23.316;2023-02-19T10:05:01;94807.59;;;21.44;39.04
6090;BME280;3073;42.660;23.316;2023-02-19T10:07:35;94807.53;;;21.00;39.11
6090;BME280;3073;42.660;23.316;2023-02-19T10:10:19;94803.59;;;20.26;39.15
6090;BME280;3073;42.660;23.316;2023-02-19T10:12:51;94800.25;;;20.88;39.25
6090;BME280;3073;42.660;23.316;2023-02-19T10:15:31;94798.06;;;20.32;39.71
6090;BME280;3073;42.660;23.316;2023-02-19T10:18:01;94784.41;;;21.48;38.08
6090;BME280;3073;42.660;23.316;2023-02-19T10:20:32;94780.97;;;21.61;37.57
6090;BME280;3073;42.660;23.316;2023-02-19T10:23:02;94785.31;;;21.74;37.58
6090;BME280;3073;42.660;23.316;2023-02-19T10:25:30;94775.03;;;21.91;37.19
6090;BME280;3073;42.660;23.316;2023-02-19T10:27:57;94770.34;;;22.11;36.70
6090;BME280;3073;42.660;23.316;2023-02-19T10:30:31;94771.56;;;22.61;36.29
6090;BME280;3073;42.660;23.316;2023-02-19T10:33:04;94770.88;;;22.38;36.17
6090;BME280;3073;42.660;23.316;2023-02-19T10:35:35;94762.41;;;22.72;35.44
6090;BME280;3073;42.660;23.316;2023-02-19T10:38:04;94758.03;;;22.42;36.25
6090;BME280;3073;42.660;23.316;2023-02-19T10:40:32;94744.78;;;21.65;37.26
6090;BME280;3073;42.660;23.316;2023-02-19T10:43:01;94744.91;;;22.47;35.89
6090;BME280;3073;42.660;23.316;2023-02-19T10:45:33;94738.94;;;21.59;36.66
6090;BME280;3073;42.660;23.316;2023-02-19T10:48:05;94719.09;;;22.85;35.71
6090;BME280;3073;42.660;23.316;2023-02-19T10:50:34;94723.16;;;21.86;36.49
6090;BME280;3073;42.660;23.316;2023-02-19T10:53:20;94719.72;;;21.99;36.56
6090;BME280;3073;42.660;23.316;2023-02-19T10:56:05;94711.53;;;22.32;36.29
6090;BME280;3073;42.660;23.316;2023-02-19T10:58:32;94716.47;;;23.02;35.28
6090;BME280;3073;42.660;23.316;2023-02-19T11:01:17;94707.72;;;22.55;35.57
6090;BME280;3073;42.660;23.316;2023-02-19T11:03:52;94699.13;;;23.23;34.80
6090;BME280;3073;42.660;23.316;2023-02-19T11:06:34;94690.09;;;23.21;35.03
6090;BME280;3073;42.660;23.316;2023-02-19T11:09:01;94690.97;;;23.88;34.00
6090;BME280;3073;42.660;23.316;2023-02-19T11:11:31;94686.03;;;24.25;33.60
6090;BME280;3073;42.660;23.316;2023-02-19T11:14:01;94684.72;;;23.81;33.73
6090;BME280;3073;42.660;23.316;2023-02-19T11:16:42;94676.03;;;23.68;34.20
6090;BME280;3073;42.660;23.316;2023-02-19T11:19:22;94660.84;;;23.24;34.56
6090;BME280;3073;42.660;23.316;2023-02-19T11:21:51;94664.69;;;23.18;33.96
6090;BME280;3073;42.660;23.316;2023-02-19T11:24:24;94657.28;;;23.37;34.02
6090;BME280;3073;42.660;23.316;2023-02-19T11:26:52;94657.09;;;22.44;34.68
6090;BME280;3073;42.660;23.316;2023-02-19T11:29:20;94657.84;;;22.96;34.34
6090;BME280;3073;42.660;23.316;2023-02-19T11:31:50;94644.56;;;23.44;33.93
6090;BME280;3073;42.660;23.316;2023-02-19T11:34:29;94641.56;;;23.92;33.70
6090;BME280;3073;42.660;23.316;2023-02-19T11:37:11;94631.81;;;23.04;34.03
6090;BME280;3073;42.660;23.316;2023-02-19T11:39:41;94625.34;;;23.86;32.99
6090;BME280;3073;42.660;23.316;2023-02-19T11:42:36;94630.41;;;24.12;32.36
6090;BME280;3073;42.660;23.316;2023-02-19T11:45:29;94624.41;;;24.41;32.37
6090;BME280;3073;42.660;23.316;2023-02-19T11:48:30;94617.28;;;24.83;31.83
6090;BME280;3073;42.660;23.316;2023-02-19T11:51:21;94613.63;;;22.36;33.18
6090;BME280;3073;42.660;23.316;2023-02-19T11:54:01;94614.44;;;22.28;34.01
6090;BME280;3073;42.660;23.316;2023-02-19T11:56:35;94615.00;;;23.69;32.57
6090;BME280;3073;42.660;23.316;2023-02-19T11:59:06;94607.34;;;23.35;32.92
6090;BME280;3073;42.660;23.316;2023-02-19T12:01:53;94596.56;;;24.03;32.16
6090;BME280;3073;42.660;23.316;2023-02-19T12:05:10;94596.13;;;24.22;31.46
6090;BME280;3073;42.660;23.316;2023-02-19T12:08:06;94584.81;;;23.01;32.82
6090;BME280;3073;42.660;23.316;2023-02-19T12:10:43;94573.19;;;21.13;36.62
6090;BME280;3073;42.660;23.316;2023-02-19T12:13:19;94581.00;;;20.60;37.49
6090;BME280;3073;42.660;23.316;2023-02-19T12:16:02;94585.00;;;20.97;36.61
6090;BME280;3073;42.660;23.316;2023-02-19T12:18:52;94574.66;;;21.28;36.01
6090;BME280;3073;42.660;23.316;2023-02-19T12:21:35;94567.38;;;21.08;35.39
6090;BME280;3073;42.660;23.316;2023-02-19T12:24:27;94569.91;;;22.21;34.88
6090;BME280;3073;42.660;23.316;2023-02-19T12:27:07;94572.00;;;21.76;35.08
6090;BME280;3073;42.660;23.316;2023-02-19T12:29:50;94560.38;;;21.73;35.76
6090;BME280;3073;42.660;23.316;2023-02-19T12:32:32;94557.88;;;21.42;35.96
6090;BME280;3073;42.660;23.316;2023-02-19T12:38:30;94543.00;;;24.15;33.12
6090;BME280;3073;42.660;23.316;2023-02-19T12:41:11;94532.13;;;25.02;30.78
6090;BME280;3073;42.660;23.316;2023-02-19T12:43:45;94535.88;;;25.50;30.47
6090;BME280;3073;42.660;23.316;2023-02-19T12:46:18;94526.19;;;24.24;31.84
6090;BME280;3073;42.660;23.316;2023-02-19T12:48:51;94524.31;;;24.90;31.40
6090;BME280;3073;42.660;23.316;2023-02-19T12:51:25;94517.38;;;24.62;31.86
6090;BME280;3073;42.660;23.316;2023-02-19T12:53:57;94522.00;;;25.49;31.40
6090;BME280;3073;42.660;23.316;2023-02-19T12:56:28;94511.69;;;25.53;30.39
6090;BME280;3073;42.660;23.316;2023-02-19T12:58:59;94504.56;;;25.78;30.70
6090;BME280;3073;42.660;23.316;2023-02-19T13:01:30;94497.28;;;26.11;30.15
6090;BME280;3073;42.660;23.316;2023-02-19T13:04:13;94494.88;;;25.78;30.05
6090;BME280;3073;42.660;23.316;2023-02-19T13:06:44;94491.00;;;24.42;31.39
6090;BME280;3073;42.660;23.316;2023-02-19T13:09:18;94490.16;;;25.07;30.54
6090;BME280;3073;42.660;23.316;2023-02-19T13:11:49;94486.13;;;25.86;29.92
6090;BME280;3073;42.660;23.316;2023-02-19T13:14:25;94490.94;;;26.40;29.29
6090;BME280;3073;42.660;23.316;2023-02-19T13:16:56;94482.25;;;27.30;28.90
6090;BME280;3073;42.660;23.316;2023-02-19T13:19:25;94481.81;;;27.78;27.74
6090;BME280;3073;42.660;23.316;2023-02-19T13:21:57;94474.16;;;27.35;27.77
6090;BME280;3073;42.660;23.316;2023-02-19T13:24:48;94471.28;;;26.46;28.52
6090;BME280;3073;42.660;23.316;2023-02-19T13:27:40;94475.00;;;26.45;28.97
6090;BME280;3073;42.660;23.316;2023-02-19T13:30:31;94459.31;;;26.45;28.60
6090;BME280;3073;42.660;23.316;2023-02-19T13:33:03;94454.41;;;25.36;29.96
6090;BME280;3073;42.660;23.316;2023-02-19T13:35:54;94453.09;;;24.45;30.93
6090;BME280;3073;42.660;23.316;2023-02-19T13:38:25;94445.72;;;25.44;29.84